Terminal Aerodrome Forecast
Issued by NWS Chicago, IL

Home | Current Version | Previous Version | Text Only | Print | Product List | Glossary Off
Versions: 1 2 3 4 5 6 7 8 9 10 11 12 13 14 15 16 17 18 19 20 21 22 23 24 25 26 27 28

161
FTUS43 KLOT 232327
TAFRFD
TAF
KRFD 232327Z 2400/2424 06012KT P6SM -SHRA SCT012 OVC060
     FM240200 06012KT 4SM -SHRA BR OVC012
     FM240600 06014G22KT 3SM SHRA BR OVC007
      TEMPO 2406/2409 2SM TSRA OVC008CB
     FM241200 07015G23KT 2SM -RADZ BR VCSH OVC004
     FM241800 02012KT 5SM -SHRA BR OVC007
     FM242100 33012KT P6SM SCT007 BKN015=

USA.gov is the U.S. government's official web portal to all federal, state and local government web resources and services.